Airfield :
LOGIN :

Register | Disclaimer

   EN    FR    IT 

 










Legend :    VFR   Marginal VFR   IFR   Intensive IFR   Very Intensive IFR
Visi :
Ceiling :
>= 8 km
>= 3000ft
5 to 8 km
1000 to 3000 ft
1500m to 5 km
500 to 1000 ft
800 to 1500m
200 to 500 ft
< 800m
< 200 ft
Symbols :   Thunderstorms  Fog  Heavy snow  Heavy precipitations  Wind > 20 kt
SIGMETs :     Misc.  Thunderstorms  Icing  Turbulence  Mountain Waves  Volcanic Ashes






- Airport Elevation : 290 ft
- IATA code : LAI


LFRO - Lannion

CURRENT METAR :
  • 120600Z AUTO 19009KT 9999 FEW015 BKN031 BKN039 08/07 Q1000

EXPIRED METARs :
  • 120530Z AUTO 19009KT 160V220 9999 FEW012 BKN039 BKN049 08/07 Q1001
  • 120500Z AUTO 19010KT 9999 FEW011 BKN027 BKN032 07/06 Q1001
  • 120430Z AUTO 18009KT 9999 -RA FEW023/// BKN033/// OVC042/// ///TCU 07/06 Q1002
  • 120400Z AUTO 16006KT 9999 -RA SCT022/// BKN030/// OVC037/// ///CB 06/05 Q1003
  • 120330Z AUTO 16006KT 9999 -RA FEW035/// SCT041/// BKN048/// ///TCU 06/04 Q1004

Expired Forecast.



MET'MAP, your aeronautical weather chart ! - Copyright ORBIFLY December 2007 - Disclaimer

ORBIFLY MET'MAP TEAM :

Programming & Development : Alexandra Zaïnal
Concept & original design : Baudouin d'Aumeries
Assistance for programming : Marc-Olivier Méhu
Technical & hardware support : Manuel Goepfert

Contact : metmap@orbifly.com




SOURCES & CREDITS :

   NOAA